Time;durP1;ratioP1;P1;durP2;ratioP2;P2;SDS_P1;SDS_P2;PMS_P1;PMS_P2;Temp;Humidity;BMP_temperature;BMP_pressure;BME280_temperature;BME280_humidity;BME280_pressure;Samples;Min_cycle;Max_cycle;Signal;HPM_P1;HPM_P2
2021/11/11 00:00:48;;;;;;;10.23;9.10;;;;;;;2.26;55.31;101469.06;1714425;83;21587;-71
2021/11/11 00:03:15;;;;;;;12.63;8.58;;;;;;;2.23;55.46;101472.52;1695856;81;21060;-73
2021/11/11 00:05:41;;;;;;;12.68;8.63;;;;;;;2.19;55.53;101474.16;1702302;82;21020;-76
2021/11/11 00:08:08;;;;;;;11.93;9.08;;;;;;;2.21;55.60;101481.15;1711380;83;21909;-75
2021/11/11 00:10:35;;;;;;;10.82;7.22;;;;;;;2.21;55.59;101481.95;1678114;83;21540;-72
2021/11/11 00:13:02;;;;;;;14.87;9.08;;;;;;;2.22;55.60;101482.30;1678255;83;20944;-74
2021/11/11 00:15:31;;;;;;;9.83;7.97;;;;;;;2.21;55.64;101479.30;1710889;83;20940;-73
2021/11/11 00:17:57;;;;;;;10.25;7.65;;;;;;;2.22;55.65;101474.83;1711098;83;21079;-73
2021/11/11 00:20:26;;;;;;;11.68;8.38;;;;;;;2.21;55.67;101470.01;1716193;82;21971;-73
2021/11/11 00:22:54;;;;;;;13.55;8.58;;;;;;;2.19;55.76;101462.70;1703724;82;20940;-75
2021/11/11 00:25:22;;;;;;;11.78;8.10;;;;;;;2.19;55.88;101455.58;1688408;83;21015;-70
2021/11/11 00:27:49;;;;;;;16.12;9.98;;;;;;;2.16;55.92;101449.72;1758193;81;21523;-71
2021/11/11 00:30:17;;;;;;;13.48;8.70;;;;;;;2.14;56.15;101443.75;1759688;81;21357;-73
2021/11/11 00:32:44;;;;;;;14.87;8.98;;;;;;;2.10;56.20;101448.53;1759303;81;21190;-72
2021/11/11 00:35:14;;;;;;;15.25;9.83;;;;;;;2.05;56.36;101442.84;1735507;81;20960;-74
2021/11/11 00:37:43;;;;;;;13.58;9.13;;;;;;;2.03;56.52;101446.13;1733520;81;20975;-72
2021/11/11 00:40:12;;;;;;;12.63;8.43;;;;;;;2.04;56.57;101440.33;1694793;84;21007;-72
2021/11/11 00:42:38;;;;;;;14.58;10.32;;;;;;;2.04;56.65;101437.19;1722953;81;21079;-73
2021/11/11 00:45:06;;;;;;;11.60;9.08;;;;;;;2.04;56.73;101428.39;1729135;82;21883;-73
2021/11/11 00:47:34;;;;;;;11.90;8.03;;;;;;;1.96;56.89;101430.48;1704666;83;21026;-73
2021/11/11 00:50:00;;;;;;;15.80;8.65;;;;;;;1.93;57.04;101426.80;1709273;84;21500;-71
2021/11/11 00:52:27;;;;;;;17.50;11.15;;;;;;;1.91;57.14;101422.15;1729377;83;21012;-71
2021/11/11 00:54:54;;;;;;;16.50;8.68;;;;;;;1.88;57.28;101423.75;1723599;82;21022;-69
2021/11/11 00:57:23;;;;;;;14.47;8.25;;;;;;;1.85;57.33;101429.86;1709654;82;21087;-70
2021/11/11 00:59:49;;;;;;;13.05;8.03;;;;;;;1.85;57.38;101428.05;1716185;81;21000;-68
2021/11/11 01:02:16;;;;;;;15.63;9.48;;;;;;;1.86;57.40;101425.74;1661208;85;21052;-70
2021/11/11 01:04:43;;;;;;;13.32;9.58;;;;;;;1.83;57.52;101422.05;1626403;86;21036;-70
2021/11/11 01:07:09;;;;;;;13.72;8.65;;;;;;;1.80;57.67;101421.52;1727278;81;20991;-70
2021/11/11 01:09:37;;;;;;;10.80;7.72;;;;;;;1.78;57.80;101416.84;1746844;81;21246;-71
2021/11/11 01:12:06;;;;;;;11.18;7.17;;;;;;;1.76;57.86;101422.32;1767174;81;20965;-73
2021/11/11 01:14:33;;;;;;;17.12;9.43;;;;;;;1.78;57.95;101414.19;1769038;81;20973;-76
2021/11/11 01:17:00;;;;;;;11.22;7.72;;;;;;;1.74;58.09;101410.52;1768486;81;21017;-76
2021/11/11 01:19:27;;;;;;;12.47;9.20;;;;;;;1.75;58.18;101399.42;1738287;82;21019;-73
2021/11/11 01:21:53;;;;;;;10.85;7.55;;;;;;;1.73;58.26;101398.24;1738369;82;21140;-74
2021/11/11 01:24:20;;;;;;;10.45;7.92;;;;;;;1.74;58.34;101405.22;1712406;82;21031;-75
2021/11/11 01:26:48;;;;;;;13.05;8.60;;;;;;;1.73;58.43;101402.70;1710742;82;21000;-74
2021/11/11 01:29:14;;;;;;;10.48;7.22;;;;;;;1.70;58.57;101401.70;1710851;82;20905;-82
2021/11/11 01:31:42;;;;;;;12.50;8.60;;;;;;;1.69;58.62;101396.88;1735832;82;20997;-77
2021/11/11 01:34:08;;;;;;;14.78;9.90;;;;;;;1.69;58.67;101395.55;1738576;82;22250;-77
2021/11/11 01:36:35;;;;;;;10.15;7.97;;;;;;;1.66;58.83;101391.89;1709836;82;20987;-75
2021/11/11 01:39:06;;;;;;;8.57;6.17;;;;;;;1.65;58.87;101388.89;1709685;82;21005;-73
2021/11/11 01:41:34;;;;;;;11.15;8.75;;;;;;;1.65;58.94;101388.89;1742812;81;21069;-73
2021/11/11 01:44:01;;;;;;;11.10;7.17;;;;;;;1.65;59.00;101384.91;1736451;81;21015;-73
2021/11/11 01:46:28;;;;;;;11.08;7.45;;;;;;;1.66;59.03;101384.42;1687742;81;21050;-79
2021/11/11 01:48:54;;;;;;;10.40;7.67;;;;;;;1.66;59.05;101376.47;1743345;81;20967;-72
2021/11/11 01:51:23;;;;;;;8.58;6.28;;;;;;;1.68;59.08;101373.15;1737860;81;20978;-71
2021/11/11 01:53:57;;;;;;;10.15;6.58;;;;;;;1.68;59.06;101373.98;1743889;81;20936;-71
2021/11/11 01:56:24;;;;;;;9.78;8.10;;;;;;;1.68;59.14;101376.64;1759267;81;21043;-71
2021/11/11 01:58:52;;;;;;;9.50;7.20;;;;;;;1.66;59.19;101368.51;1684691;84;21819;-71
2021/11/11 02:01:19;;;;;;;14.37;7.77;;;;;;;1.65;59.27;101361.04;1699721;83;21096;-71
2021/11/11 02:03:47;;;;;;;13.20;7.77;;;;;;;1.67;59.30;101356.43;1729748;83;20961;-72
2021/11/11 02:06:31;;;;;;;11.60;7.40;;;;;;;1.68;59.29;101347.95;1732478;82;21076;-72
2021/11/11 02:09:04;;;;;;;13.48;7.50;;;;;;;1.69;59.37;101353.12;1716698;83;21627;-73
2021/11/11 02:11:33;;;;;;;10.98;6.37;;;;;;;1.67;59.39;101343.17;1670999;83;21991;-75
2021/11/11 02:14:00;;;;;;;10.87;7.57;;;;;;;1.67;59.53;101337.87;1705784;83;21563;-72
2021/11/11 02:16:26;;;;;;;7.45;6.40;;;;;;;1.66;59.58;101341.98;1712312;83;21055;-74
2021/11/11 02:18:53;;;;;;;11.45;6.83;;;;;;;1.66;59.69;101333.55;1675299;85;21011;-77
2021/11/11 02:21:20;;;;;;;11.40;8.47;;;;;;;1.65;59.73;101334.52;1676402;85;21112;-72
2021/11/11 02:23:48;;;;;;;11.85;7.05;;;;;;;1.65;59.83;101329.70;1694009;83;21974;-73
2021/11/11 02:26:19;;;;;;;14.03;7.37;;;;;;;1.64;59.94;101325.38;1685503;83;20993;-75
2021/11/11 02:29:00;;;;;;;10.57;6.60;;;;;;;1.62;60.01;101329.53;1711836;83;21042;-74
2021/11/11 02:31:27;;;;;;;8.65;6.35;;;;;;;1.59;60.17;101324.52;1707091;83;21043;-71
2021/11/11 02:33:57;;;;;;;8.35;6.45;;;;;;;1.59;60.31;101325.84;1679908;84;21058;-71
2021/11/11 02:36:25;;;;;;;9.03;6.00;;;;;;;1.57;60.43;101329.64;1654837;85;21081;-73
2021/11/11 02:38:54;;;;;;;9.80;7.23;;;;;;;1.57;60.50;101329.16;1678743;85;21564;-71
2021/11/11 02:41:21;;;;;;;9.87;5.83;;;;;;;1.59;60.53;101323.19;1676739;84;21064;-70
2021/11/11 02:43:48;;;;;;;9.60;6.57;;;;;;;1.59;60.65;101324.52;1704391;84;21071;-70
2021/11/11 02:46:18;;;;;;;10.03;6.90;;;;;;;1.59;60.61;101317.88;1677530;84;21008;-70
2021/11/11 02:48:44;;;;;;;10.00;7.10;;;;;;;1.57;60.66;101318.55;1680582;83;21060;-70
2021/11/11 02:51:11;;;;;;;8.18;6.92;;;;;;;1.52;60.83;101316.84;1727104;83;21045;-71
2021/11/11 02:53:41;;;;;;;12.63;9.13;;;;;;;1.52;60.92;101321.30;1704156;83;21013;-71
2021/11/11 02:56:08;;;;;;;9.23;6.47;;;;;;;1.51;60.97;101313.00;1709402;81;21092;-71
2021/11/11 02:58:35;;;;;;;9.90;6.17;;;;;;;1.48;61.11;101308.85;1692395;84;21052;-71
2021/11/11 03:01:04;;;;;;;7.87;5.77;;;;;;;1.48;61.24;101306.69;1700676;81;21167;-70
2021/11/11 03:03:32;;;;;;;11.07;7.07;;;;;;;1.48;61.26;101299.58;1709229;84;21548;-70
2021/11/11 03:05:59;;;;;;;10.63;6.60;;;;;;;1.49;61.24;101295.08;1709076;84;21011;-71
2021/11/11 03:08:27;;;;;;;8.53;6.20;;;;;;;1.47;61.27;101299.22;1684815;84;21043;-73
2021/11/11 03:10:56;;;;;;;7.57;5.93;;;;;;;1.48;61.32;101300.90;1709158;84;21019;-71
2021/11/11 03:13:25;;;;;;;10.23;6.60;;;;;;;1.47;61.38;101294.41;1708713;84;20998;-70
2021/11/11 03:15:55;;;;;;;7.83;6.10;;;;;;;1.48;61.43;101293.44;1683080;84;21017;-69
2021/11/11 03:18:22;;;;;;;8.87;6.40;;;;;;;1.48;61.47;101286.31;1685938;83;20985;-71
2021/11/11 03:20:49;;;;;;;10.67;6.77;;;;;;;1.50;61.45;101284.33;1682808;84;21073;-69
2021/11/11 03:23:15;;;;;;;12.03;7.73;;;;;;;1.54;61.41;101280.38;1662672;85;21092;-70
2021/11/11 03:25:43;;;;;;;10.13;6.87;;;;;;;1.55;61.40;101274.09;1680898;85;21025;-71
2021/11/11 03:28:10;;;;;;;9.60;5.87;;;;;;;1.53;61.45;101272.11;1657112;85;21029;-71
2021/11/11 03:30:37;;;;;;;8.60;6.53;;;;;;;1.51;61.49;101271.42;1657381;86;21587;-70
2021/11/11 03:33:06;;;;;;;8.60;5.92;;;;;;;1.44;61.66;101265.56;1657176;85;21017;-71
2021/11/11 03:35:35;;;;;;;8.13;6.87;;;;;;;1.42;61.79;101264.88;1675014;84;21044;-71
2021/11/11 03:38:04;;;;;;;9.13;6.00;;;;;;;1.39;61.92;101258.56;1709315;84;21264;-72
2021/11/11 03:40:36;;;;;;;8.70;7.13;;;;;;;1.37;62.05;101253.89;1683816;84;20998;-71
2021/11/11 03:43:03;;;;;;;9.80;6.50;;;;;;;1.34;62.23;101247.09;1678294;84;21598;-71
2021/11/11 03:45:31;;;;;;;9.00;6.67;;;;;;;1.27;62.43;101236.73;1708123;84;20927;-72
2021/11/11 03:47:58;;;;;;;9.27;6.73;;;;;;;1.16;63.00;101235.62;1684944;84;20990;-71
2021/11/11 03:50:26;;;;;;;9.67;6.50;;;;;;;1.09;63.24;101232.77;1708447;84;21139;-72
2021/11/11 03:52:55;;;;;;;9.60;6.53;;;;;;;1.03;63.55;101224.09;1709071;82;21498;-72
2021/11/11 03:55:25;;;;;;;11.03;7.57;;;;;;;0.96;64.00;101215.58;1708393;84;20967;-71
2021/11/11 03:57:55;;;;;;;9.97;8.07;;;;;;;0.92;64.19;101212.38;1708599;83;21002;-71
2021/11/11 04:00:22;;;;;;;14.33;6.43;;;;;;;0.88;64.30;101205.23;1679823;85;21049;-70
2021/11/11 04:02:53;;;;;;;8.37;6.07;;;;;;;0.83;64.69;101209.30;1679263;85;21188;-71
2021/11/11 04:05:20;;;;;;;9.90;7.13;;;;;;;0.81;64.96;101205.99;1676927;84;21032;-71
2021/11/11 04:07:51;;;;;;;8.93;6.37;;;;;;;0.77;64.93;101200.63;1688594;84;21032;-71
2021/11/11 04:10:18;;;;;;;9.20;5.67;;;;;;;0.67;65.57;101199.36;1654912;85;22288;-69
2021/11/11 04:12:45;;;;;;;7.50;6.13;;;;;;;0.63;65.76;101192.70;1688337;85;21035;-70
2021/11/11 04:15:14;;;;;;;9.47;6.17;;;;;;;0.58;66.01;101191.48;1672129;83;22153;-71
2021/11/11 04:17:42;;;;;;;11.63;7.20;;;;;;;0.55;66.36;101185.17;1707373;83;21199;-71
2021/11/11 04:20:11;;;;;;;12.60;7.93;;;;;;;0.50;66.58;101188.75;1694224;84;20966;-71
2021/11/11 04:22:40;;;;;;;9.97;6.57;;;;;;;0.46;66.69;101182.09;1662724;84;21090;-72
2021/11/11 04:25:10;;;;;;;9.10;5.17;;;;;;;0.44;66.80;101174.29;1707996;82;21019;-71
2021/11/11 04:27:45;;;;;;;11.30;7.90;;;;;;;0.44;67.06;101176.45;1657728;85;21022;-70
2021/11/11 04:32:48;;;;;;;13.47;9.20;;;;;;;0.32;67.66;101167.06;1669339;84;43323;-70
2021/11/11 04:35:17;;;;;;;10.67;7.80;;;;;;;0.31;67.82;101168.52;1691092;84;21056;-72
2021/11/11 05:01:35;;;;;;;21.37;9.87;;;;;;;0.55;67.47;101149.44;1654478;85;21580;-72
2021/11/11 05:03:58;;;;;;;13.40;7.80;;;;;;;0.58;67.42;101143.83;1709307;84;21029;-71
2021/11/11 05:06:24;;;;;;;17.13;8.93;;;;;;;0.58;67.41;101139.86;1652225;85;21345;-69
2021/11/11 05:08:51;;;;;;;13.10;6.13;;;;;;;0.60;67.37;101153.30;1701521;84;21008;-71
2021/11/11 05:11:18;;;;;;;10.13;6.67;;;;;;;0.66;67.29;101159.82;1710797;83;21499;-72
2021/11/11 05:13:45;;;;;;;9.43;6.17;;;;;;;0.73;67.00;101165.67;1710542;83;21027;-69
2021/11/11 05:16:14;;;;;;;10.73;7.00;;;;;;;0.77;66.83;101162.23;1725265;81;21012;-72
2021/11/11 05:18:42;;;;;;;8.13;6.10;;;;;;;0.83;66.60;101165.61;1750581;81;21456;-72
2021/11/11 05:21:11;;;;;;;7.27;5.93;;;;;;;0.86;66.40;101161.36;1769055;81;20930;-71
2021/11/11 05:23:38;;;;;;;7.73;6.00;;;;;;;0.90;66.22;101165.36;1754095;81;20992;-72
2021/11/11 05:26:04;;;;;;;10.47;6.33;;;;;;;0.95;66.08;101167.06;1707496;82;21517;-73
2021/11/11 05:28:34;;;;;;;8.10;6.30;;;;;;;0.97;65.86;101166.41;1707425;82;21169;-75
2021/11/11 05:31:02;;;;;;;8.93;5.93;;;;;;;0.98;65.71;101165.91;1704089;83;21797;-74
2021/11/11 05:33:30;;;;;;;10.00;6.40;;;;;;;1.00;65.61;101183.83;1722317;83;20948;-76
2021/11/11 05:35:58;;;;;;;6.10;5.50;;;;;;;1.04;65.30;101166.16;1698742;82;21615;-76
2021/11/11 05:38:25;;;;;;;9.30;6.23;;;;;;;1.10;65.14;101163.39;1710872;82;20982;-72
2021/11/11 05:40:51;;;;;;;9.70;6.33;;;;;;;1.13;64.99;101162.59;1726383;81;21050;-73
2021/11/11 05:43:18;;;;;;;6.97;5.47;;;;;;;1.15;64.83;101167.22;1767439;81;21949;-69
2021/11/11 05:45:45;;;;;;;8.07;6.33;;;;;;;1.19;64.65;101166.45;1735645;82;21574;-72
2021/11/11 05:48:12;;;;;;;9.93;5.90;;;;;;;1.21;64.56;101176.39;1735797;82;21059;-70
2021/11/11 05:50:40;;;;;;;7.63;5.53;;;;;;;1.22;64.57;101162.99;1738495;82;21024;-69
2021/11/11 05:53:07;;;;;;;10.27;7.20;;;;;;;1.25;64.43;101148.09;1714788;81;21030;-69
2021/11/11 05:55:34;;;;;;;8.50;6.27;;;;;;;1.26;64.35;101143.14;1761476;81;21113;-69
2021/11/11 05:58:02;;;;;;;9.50;6.30;;;;;;;1.27;64.23;101144.81;1680552;84;20922;-74
2021/11/11 06:00:29;;;;;;;8.03;5.80;;;;;;;1.33;63.99;101139.88;1689621;84;21529;-72
2021/11/11 06:03:04;;;;;;;9.70;7.63;;;;;;;1.38;63.90;101123.86;1709240;83;21459;-72
2021/11/11 06:05:31;;;;;;;13.20;6.43;;;;;;;1.41;63.78;101131.49;1683900;84;21065;-72
2021/11/11 06:07:59;;;;;;;9.30;6.63;;;;;;;1.47;63.66;101129.55;1684367;84;21115;-73
2021/11/11 06:10:26;;;;;;;8.07;5.80;;;;;;;1.51;63.40;101134.87;1709097;84;21528;-70
2021/11/11 06:12:53;;;;;;;8.77;6.70;;;;;;;1.54;63.32;101127.92;1694274;84;20939;-71
2021/11/11 06:15:21;;;;;;;6.27;5.40;;;;;;;1.54;63.29;101125.77;1680645;85;20951;-70
2021/11/11 06:17:53;;;;;;;10.60;7.00;;;;;;;1.58;63.21;101138.55;1658953;85;21054;-75
2021/11/11 06:20:20;;;;;;;10.10;7.80;;;;;;;1.62;63.01;101148.38;1680349;85;21215;-73
2021/11/11 06:22:48;;;;;;;9.90;6.30;;;;;;;1.67;63.01;101143.44;1657085;85;21027;-74
2021/11/11 06:25:16;;;;;;;8.60;5.77;;;;;;;1.76;62.87;101143.82;1706306;84;20994;-74
2021/11/11 06:27:45;;;;;;;13.10;6.93;;;;;;;1.81;62.57;101144.67;1684507;84;20947;-75
2021/11/11 06:30:11;;;;;;;8.10;5.10;;;;;;;1.83;62.43;101136.88;1678155;85;21499;-73
2021/11/11 06:32:38;;;;;;;8.73;5.60;;;;;;;1.88;62.34;101131.09;1657106;85;21210;-71
2021/11/11 06:35:07;;;;;;;5.73;5.10;;;;;;;1.91;62.05;101124.17;1680961;85;21030;-70
2021/11/11 06:37:36;;;;;;;7.73;5.97;;;;;;;1.96;61.84;101116.56;1692739;84;21030;-71
2021/11/11 06:40:05;;;;;;;6.93;6.00;;;;;;;1.99;61.90;101102.48;1709094;83;21010;-71
2021/11/11 06:42:31;;;;;;;8.37;5.83;;;;;;;2.05;61.79;101111.63;1683046;84;21578;-72
2021/11/11 06:44:59;;;;;;;9.00;4.80;;;;;;;2.08;61.69;101117.44;1664895;84;21114;-75
2021/11/11 06:47:25;;;;;;;8.08;5.62;;;;;;;2.11;61.49;101102.51;1680233;84;21073;-72
2021/11/11 06:49:52;;;;;;;7.40;5.47;;;;;;;2.16;61.36;101103.36;1706539;84;21062;-71
2021/11/11 06:52:19;;;;;;;8.60;5.17;;;;;;;2.18;61.25;101088.11;1709380;83;21077;-71
2021/11/11 06:54:45;;;;;;;10.05;5.50;;;;;;;2.24;61.06;101094.11;1669817;84;21546;-69
2021/11/11 06:57:13;;;;;;;7.67;5.05;;;;;;;2.28;60.61;101099.92;1654954;85;21913;-69
2021/11/11 06:59:41;;;;;;;6.42;5.03;;;;;;;2.32;60.37;101095.45;1677895;84;21507;-71
2021/11/11 07:02:08;;;;;;;9.53;5.83;;;;;;;2.38;60.32;101093.98;1682395;84;21491;-72
2021/11/11 07:04:35;;;;;;;8.00;5.35;;;;;;;2.43;60.14;101102.30;1669961;84;21549;-73
2021/11/11 07:07:02;;;;;;;14.33;8.55;;;;;;;2.48;60.09;101092.02;1699226;83;21518;-72
2021/11/11 07:09:29;;;;;;;11.35;6.53;;;;;;;2.51;60.03;101091.67;1675972;84;21506;-73
2021/11/11 07:11:56;;;;;;;6.78;5.87;;;;;;;2.57;59.93;101097.67;1699212;83;21035;-72
2021/11/11 07:14:22;;;;;;;6.12;4.87;;;;;;;2.62;59.42;101094.86;1698111;84;21094;-71
2021/11/11 07:16:49;;;;;;;7.12;5.10;;;;;;;2.68;59.02;101104.50;1722220;83;21038;-71
2021/11/11 07:19:17;;;;;;;6.17;4.80;;;;;;;2.69;58.31;101095.52;1720940;83;21012;-73
2021/11/11 07:21:45;;;;;;;7.95;5.70;;;;;;;2.73;58.45;101097.70;1724672;83;20959;-71
2021/11/11 07:24:14;;;;;;;6.05;5.53;;;;;;;2.75;58.25;101123.59;1704618;83;20989;-72
2021/11/11 07:26:40;;;;;;;7.33;5.65;;;;;;;2.79;58.02;101106.32;1726834;83;21485;-73
2021/11/11 07:29:07;;;;;;;11.50;6.90;;;;;;;2.83;57.72;101102.34;1726920;82;21133;-72
2021/11/11 07:31:33;;;;;;;7.53;6.03;;;;;;;2.91;57.86;101128.10;1698318;83;21657;-73
2021/11/11 07:33:59;;;;;;;7.40;5.20;;;;;;;2.95;57.61;101106.34;1726991;83;21878;-74
2021/11/11 07:36:27;;;;;;;6.50;5.85;;;;;;;3.03;57.62;101119.62;1724299;82;20995;-72
2021/11/11 07:38:54;;;;;;;8.38;6.42;;;;;;;3.07;57.04;101114.80;1702856;83;21512;-71
2021/11/11 07:41:20;;;;;;;16.62;6.83;;;;;;;3.13;57.09;101094.70;1726825;83;21071;-72
2021/11/11 07:43:48;;;;;;;6.83;4.92;;;;;;;3.20;56.95;101099.70;1717974;83;21060;-75
2021/11/11 07:46:15;;;;;;;7.20;6.20;;;;;;;3.21;56.47;101093.39;1723769;82;21116;-72
2021/11/11 07:48:41;;;;;;;7.33;5.80;;;;;;;3.25;56.58;101096.03;1707504;82;21026;-73
2021/11/11 07:51:10;;;;;;;12.03;6.72;;;;;;;3.30;56.35;101083.07;1699094;83;21027;-70
2021/11/11 07:53:36;;;;;;;6.53;5.33;;;;;;;3.34;56.06;101083.89;1702719;83;21016;-76
2021/11/11 07:56:05;;;;;;;8.23;6.33;;;;;;;3.40;55.70;101096.52;1664600;84;21004;-72
2021/11/11 07:58:31;;;;;;;7.50;5.22;;;;;;;3.46;55.89;101085.69;1676255;84;21145;-72
2021/11/11 08:00:58;;;;;;;9.23;6.10;;;;;;;3.55;55.53;101071.36;1721469;83;21099;-70
2021/11/11 08:03:24;;;;;;;8.93;5.67;;;;;;;3.62;55.46;101056.89;1735283;82;21047;-70
2021/11/11 08:05:52;;;;;;;7.40;4.62;;;;;;;3.68;55.29;101063.70;1710649;82;20982;-75
2021/11/11 08:08:20;;;;;;;6.67;5.05;;;;;;;3.76;54.85;101066.32;1666730;83;21015;-74
2021/11/11 08:10:47;;;;;;;7.58;6.20;;;;;;;3.84;54.76;101067.61;1713640;83;21883;-73
2021/11/11 08:13:14;;;;;;;8.35;7.08;;;;;;;3.89;54.70;101057.28;1680683;85;21062;-72
2021/11/11 08:15:40;;;;;;;6.87;5.37;;;;;;;3.94;54.22;101057.59;1712140;83;21167;-72
2021/11/11 08:18:08;;;;;;;9.23;5.97;;;;;;;4.02;53.56;101067.39;1711944;83;20970;-72
2021/11/11 08:20:36;;;;;;;8.35;6.83;;;;;;;4.11;53.01;101054.86;1685459;83;21026;-73
2021/11/11 08:23:02;;;;;;;7.67;6.70;;;;;;;4.20;52.91;101053.81;1709431;83;21939;-71
2021/11/11 08:25:29;;;;;;;8.78;7.33;;;;;;;4.30;53.02;101048.59;1683363;83;20960;-70
2021/11/11 08:27:56;;;;;;;9.40;5.78;;;;;;;4.41;52.80;101057.19;1707234;83;21038;-75
2021/11/11 08:30:22;;;;;;;8.75;6.03;;;;;;;4.48;52.14;101057.63;1717327;83;21069;-73
2021/11/11 08:32:51;;;;;;;7.53;6.05;;;;;;;4.56;52.23;101058.89;1713950;82;21069;-73
2021/11/11 08:35:20;;;;;;;10.40;6.20;;;;;;;4.66;51.95;101056.00;1679059;84;21626;-72
2021/11/11 08:37:47;;;;;;;7.20;5.92;;;;;;;4.75;51.55;101056.25;1652149;85;21594;-78
2021/11/11 08:40:15;;;;;;;8.33;5.75;;;;;;;4.83;51.19;101078.38;1697677;82;21551;-71
2021/11/11 08:42:43;;;;;;;13.58;5.62;;;;;;;4.88;50.67;101053.01;1709574;82;21502;-72
2021/11/11 08:45:10;;;;;;;9.40;5.65;;;;;;;4.94;50.61;101053.63;1737143;81;27251;-72
2021/11/11 08:47:37;;;;;;;12.33;6.78;;;;;;;5.07;50.88;101049.34;1743819;81;21165;-73
2021/11/11 08:50:06;;;;;;;10.53;8.43;;;;;;;5.07;50.88;101049.34;1723649;82;20946;-73
2021/11/11 08:52:33;;;;;;;10.40;6.17;;;;;;;5.18;50.17;101040.08;1745423;81;20943;-73
2021/11/11 08:55:00;;;;;;;12.75;6.70;;;;;;;5.18;50.17;101040.08;1732768;81;21036;-73
2021/11/11 08:57:26;;;;;;;9.78;7.60;;;;;;;5.27;50.42;101038.45;1724384;82;21553;-72
2021/11/11 08:59:54;;;;;;;11.28;7.80;;;;;;;5.35;50.61;101027.39;1713464;82;21117;-72
2021/11/11 09:02:23;;;;;;;6.53;5.70;;;;;;;5.42;50.03;101038.46;1737399;82;21232;-70
2021/11/11 09:04:49;;;;;;;7.50;5.60;;;;;;;5.43;49.71;101007.28;1739085;81;21030;-70
2021/11/11 09:07:18;;;;;;;9.10;7.20;;;;;;;5.49;49.76;100996.70;1739555;81;21473;-73
2021/11/11 09:09:45;;;;;;;8.33;6.05;;;;;;;5.51;49.02;100991.20;1759715;81;21033;-74
2021/11/11 09:12:11;;;;;;;10.03;5.78;;;;;;;5.56;48.82;100983.47;1749162;81;21048;-73
2021/11/11 09:14:38;;;;;;;7.00;6.05;;;;;;;5.61;49.03;100973.06;1736710;82;22398;-70
2021/11/11 09:17:05;;;;;;;13.28;7.25;;;;;;;5.65;49.04;100969.00;1721759;81;21027;-74
2021/11/11 09:19:31;;;;;;;5.80;3.75;;;;;;;5.72;49.13;100971.23;1706988;81;21583;-70
2021/11/11 09:21:58;;;;;;;10.28;6.42;;;;;;;5.75;49.07;100970.88;1741159;81;21046;-71
2021/11/11 09:24:25;;;;;;;7.83;6.28;;;;;;;5.76;49.21;100959.66;1710189;83;21138;-72
2021/11/11 09:26:52;;;;;;;7.97;6.03;;;;;;;5.84;48.80;100989.77;1694673;83;20966;-70
2021/11/11 09:29:18;;;;;;;9.80;6.75;;;;;;;5.87;48.48;100945.36;1680426;83;21121;-72
2021/11/11 09:31:45;;;;;;;8.98;5.65;;;;;;;5.89;48.76;100944.69;1680087;83;21006;-73
2021/11/11 09:34:11;;;;;;;13.40;7.42;;;;;;;5.93;48.29;100931.77;1652716;85;21551;-74
2021/11/11 09:36:38;;;;;;;7.95;5.28;;;;;;;6.00;48.65;100926.81;1715730;82;21056;-73
2021/11/11 09:39:05;;;;;;;8.50;5.72;;;;;;;6.11;48.79;100904.95;1682152;83;21963;-72
2021/11/11 09:41:34;;;;;;;7.00;5.47;;;;;;;6.21;48.57;100907.80;1664582;84;21060;-76
2021/11/11 09:44:01;;;;;;;7.83;5.17;;;;;;;6.29;48.39;100921.02;1705225;82;21058;-72
2021/11/11 09:46:27;;;;;;;16.42;6.20;;;;;;;6.37;48.40;100901.70;1722275;82;21084;-74
2021/11/11 09:48:54;;;;;;;8.68;5.45;;;;;;;6.44;48.25;100901.23;1734486;81;21147;-74
2021/11/11 09:51:22;;;;;;;6.35;5.45;;;;;;;6.50;47.75;100890.28;1738497;81;21043;-74
2021/11/11 09:54:17;;;;;;;8.03;5.45;;;;;;;6.54;47.89;100878.17;1738493;82;21022;-74
2021/11/11 09:59:16;;;;;;;8.58;5.60;;;;;;;6.65;47.96;100858.11;1704875;84;21175;-73
2021/11/11 10:01:45;;;;;;;10.72;5.47;;;;;;;6.67;48.19;100858.72;1714560;82;21168;-73
2021/11/11 10:04:12;;;;;;;9.03;6.50;;;;;;;6.73;48.35;100864.13;1743990;81;20979;-75
2021/11/11 10:06:40;;;;;;;9.73;5.78;;;;;;;6.83;48.35;100875.80;1714848;81;21501;-70
2021/11/11 10:09:20;;;;;;;10.15;5.92;;;;;;;6.88;48.21;100860.83;1741097;81;21050;-72
2021/11/11 10:12:00;;;;;;;8.63;5.20;;;;;;;6.96;48.08;100851.80;1727009;82;21042;-75
2021/11/11 10:14:36;;;;;;;7.28;5.35;;;;;;;7.00;47.74;100847.73;1681958;84;21091;-70
2021/11/11 10:17:11;;;;;;;9.05;5.60;;;;;;;7.05;47.66;100832.43;1709733;82;20998;-76
2021/11/11 10:19:42;;;;;;;9.18;5.47;;;;;;;7.12;47.59;100827.41;1733708;81;21131;-78
2021/11/11 10:22:21;;;;;;;8.53;4.92;;;;;;;7.20;47.33;100814.36;1728533;82;21009;-74
2021/11/11 10:25:10;;;;;;;6.30;4.80;;;;;;;7.26;46.94;100809.04;1700634;84;21115;-73
2021/11/11 10:27:29;;;;;;;9.80;6.03;;;;;;;7.33;46.84;100807.73;1712844;81;21500;-78
2021/11/11 10:30:05;;;;;;;11.43;5.95;;;;;;;7.39;46.92;100789.00;1742646;81;21037;-79
2021/11/11 10:32:39;;;;;;;2.65;2.45;;;;;;;7.47;46.64;100778.64;1706721;82;21110;-82
2021/11/11 10:35:24;;;;;;;5.60;4.92;;;;;;;7.53;46.02;100781.81;1738787;81;21403;-82
2021/11/11 10:37:57;;;;;;;9.75;5.53;;;;;;;7.61;45.80;100758.89;1714291;82;21502;-84
2021/11/11 10:40:31;;;;;;;6.60;4.67;;;;;;;7.74;45.71;100747.35;1711573;82;21905;-82
2021/11/11 10:42:58;;;;;;;7.17;5.25;;;;;;;7.80;44.65;100743.35;1710993;83;21034;-84
2021/11/11 10:45:28;;;;;;;4.80;4.30;;;;;;;7.80;44.23;100738.00;1710421;83;20939;-73
2021/11/11 10:47:58;;;;;;;6.40;4.92;;;;;;;7.85;44.44;100766.33;1692782;82;21045;-87
2021/11/11 10:50:29;;;;;;;7.47;4.75;;;;;;;7.89;44.32;100751.48;1687577;83;21109;-90
2021/11/11 10:52:57;;;;;;;7.42;4.42;;;;;;;7.92;43.80;100759.61;1679895;83;21203;-82
2021/11/11 10:55:29;;;;;;;7.53;5.30;;;;;;;7.92;43.69;100757.45;1691309;83;21554;-71
2021/11/11 10:58:03;;;;;;;9.05;5.15;;;;;;;7.93;43.85;100760.44;1686151;84;21026;-73
2021/11/11 11:00:53;;;;;;;7.90;5.75;;;;;;;7.97;43.66;100769.19;1683147;85;20990;-71
2021/11/11 11:03:30;;;;;;;6.55;4.17;;;;;;;8.05;43.76;100763.65;1684770;83;21121;-72
2021/11/11 11:06:06;;;;;;;13.53;6.28;;;;;;;8.16;43.39;100761.66;1686389;83;21915;-73
2021/11/11 11:08:35;;;;;;;9.55;4.33;;;;;;;8.28;43.53;100763.20;1689506;83;21014;-73
2021/11/11 11:11:15;;;;;;;7.62;5.58;;;;;;;8.45;43.19;100748.86;1683591;83;21100;-69
2021/11/11 11:13:48;;;;;;;8.20;5.90;;;;;;;8.57;43.05;100768.64;1656849;85;21046;-74
2021/11/11 11:16:16;;;;;;;;;;;;;;;8.73;43.06;100762.28;1738840;81;21531;-78
2021/11/11 11:18:45;;;;;;;9.53;6.15;;;;;;;8.85;42.51;100756.27;1733078;81;20951;-72
2021/11/11 11:21:19;;;;;;;7.67;5.25;;;;;;;8.86;42.74;100780.22;1731419;82;21511;-72
2021/11/11 11:23:51;;;;;;;7.53;4.83;;;;;;;8.83;42.84;100752.45;1688051;82;20947;-75
2021/11/11 11:26:33;;;;;;;8.43;4.10;;;;;;;8.78;43.05;100739.39;1734114;82;21578;-69
2021/11/11 11:29:23;;;;;;;9.98;5.83;;;;;;;8.76;43.13;100748.98;1738615;82;21102;-71
2021/11/11 11:32:07;;;;;;;7.00;4.62;;;;;;;8.71;43.39;100734.88;1710776;82;21240;-80
2021/11/11 11:34:28;;;;;;;7.87;5.62;;;;;;;8.66;43.63;100723.12;1683353;83;21129;-77
2021/11/11 11:37:02;;;;;;;8.40;4.55;;;;;;;8.66;43.79;100725.81;1672846;83;20963;-88
2021/11/11 11:39:35;;;;;;;15.15;6.08;;;;;;;8.68;44.03;100726.44;1684876;83;21033;-87
2021/11/11 11:42:11;;;;;;;7.05;4.90;;;;;;;8.71;44.14;100721.47;1713782;83;21045;-73
2021/11/11 11:44:44;;;;;;;8.60;5.03;;;;;;;8.77;44.09;100720.31;1664314;83;21094;-72
2021/11/11 11:49:56;;;;;;;11.97;7.05;;;;;;;8.78;43.85;100708.55;1711846;83;21468;-73
2021/11/11 11:52:24;;;;;;;7.22;5.53;;;;;;;8.77;43.72;100694.31;1686194;83;21089;-69
2021/11/11 11:54:56;;;;;;;11.35;7.15;;;;;;;8.77;43.77;100688.13;1706288;83;21150;-76
2021/11/11 12:00:12;;;;;;;13.55;7.03;;;;;;;8.79;43.64;100682.84;1682741;83;20992;-77
2021/11/11 12:03:09;;;;;;;12.68;6.55;;;;;;;8.80;43.59;100672.41;1684275;83;20940;-76
2021/11/11 12:05:17;;;;;;;13.40;8.10;;;;;;;8.75;43.12;100681.11;1687927;82;21079;-72
2021/11/11 12:18:27;;;;;;;14.93;7.92;;;;;;;8.92;42.38;100684.10;1711350;82;21063;-74
2021/11/11 12:40:32;;;;;;;24.12;7.55;;;;;;;9.36;41.61;100649.65;1727109;82;21045;-72